createdAt,value
2018-10-07T07:31:23.564Z,19.70
2018-10-07T07:33:52.394Z,19.94
2018-10-07T07:36:22.668Z,20.20
2018-10-07T07:38:51.676Z,20.28
2018-10-07T07:41:20.663Z,20.28
2018-10-07T07:43:49.625Z,20.13
2018-10-07T07:46:19.788Z,19.96
2018-10-07T07:48:48.672Z,19.96
2018-10-07T07:51:18.224Z,20.07
2018-10-07T07:53:47.166Z,20.44
2018-10-07T07:56:16.157Z,20.70
2018-10-07T07:58:45.074Z,20.77
2018-10-07T08:01:14.076Z,21.03
2018-10-07T08:03:43.215Z,21.08
2018-10-07T08:06:12.201Z,21.09
2018-10-07T08:08:41.333Z,20.70
2018-10-07T08:11:10.253Z,20.83
2018-10-07T08:13:39.235Z,20.79
2018-10-07T08:16:08.461Z,21.01
2018-10-07T08:18:37.470Z,20.94
2018-10-07T08:21:06.587Z,20.98
2018-10-07T08:23:35.622Z,20.99
2018-10-07T08:26:06.329Z,21.03
2018-10-07T08:28:35.261Z,20.92
2018-10-07T08:31:05.896Z,21.02
2018-10-07T08:33:34.942Z,21.01
2018-10-07T08:36:03.884Z,21.00
2018-10-07T08:38:32.806Z,20.85
2018-10-07T08:41:03.150Z,21.10
2018-10-07T08:43:32.063Z,21.38
2018-10-07T08:46:00.945Z,21.54
2018-10-07T08:48:31.177Z,21.50
2018-10-07T08:51:00.189Z,21.35
2018-10-07T08:53:29.104Z,21.30
2018-10-07T08:55:58.089Z,21.29
2018-10-07T08:58:26.975Z,21.39
2018-10-07T09:00:55.914Z,21.38
2018-10-07T09:03:24.880Z,21.57
2018-10-07T09:05:53.831Z,21.66
2018-10-07T09:08:22.828Z,21.78
2018-10-07T09:10:54.366Z,21.93
2018-10-07T09:13:23.267Z,21.68
2018-10-07T09:15:52.210Z,21.78
2018-10-07T09:18:21.174Z,21.75
2018-10-07T09:20:50.229Z,21.77
2018-10-07T09:23:19.355Z,21.71
2018-10-07T09:25:48.248Z,21.87
2018-10-07T09:28:17.224Z,21.81
2018-10-07T09:30:46.238Z,21.80
2018-10-07T09:33:15.112Z,21.64
2018-10-07T09:35:44.030Z,21.69
2018-10-07T09:38:12.967Z,22.04
2018-10-07T09:40:41.995Z,21.89
2018-10-07T09:43:10.867Z,22.02
2018-10-07T09:45:39.876Z,22.02
2018-10-07T09:48:09.033Z,21.78
2018-10-07T09:50:37.931Z,21.76
2018-10-07T09:53:08.352Z,21.92
2018-10-07T09:55:37.367Z,22.15
2018-10-07T09:58:06.529Z,22.51
2018-10-07T10:00:42.747Z,22.52
2018-10-07T10:03:12.539Z,22.42
2018-10-07T10:05:41.476Z,22.58
2018-10-07T10:08:10.577Z,22.82
2018-10-07T10:10:39.612Z,22.58
2018-10-07T10:13:08.637Z,22.48
2018-10-07T10:15:38.923Z,22.20
2018-10-07T10:18:08.768Z,21.91
2018-10-07T10:21:21.858Z,21.48
2018-10-07T10:23:54.543Z,21.70
2018-10-07T10:26:37.974Z,21.88
2018-10-07T10:29:28.924Z,22.24
2018-10-07T10:32:26.254Z,22.25
2018-10-07T10:35:04.379Z,22.40
2018-10-07T10:37:36.560Z,22.47
2018-10-07T10:40:08.086Z,22.19
2018-10-07T10:42:46.275Z,22.04
2018-10-07T10:45:28.019Z,22.01
2018-10-07T10:48:01.104Z,22.07
2018-10-07T10:50:33.826Z,21.82
2018-10-07T10:53:39.855Z,21.43
2018-10-07T10:56:25.735Z,21.72
2018-10-07T10:59:14.287Z,21.74
2018-10-07T11:04:08.565Z,22.13
2018-10-07T11:08:48.818Z,21.92
2018-10-07T11:11:35.495Z,22.05
2018-10-07T11:15:21.244Z,21.93
2018-10-07T11:18:08.029Z,21.65
2018-10-07T11:20:51.991Z,21.88
2018-10-07T11:23:38.563Z,21.72
2018-10-07T11:28:21.412Z,21.80
2018-10-07T11:31:09.015Z,21.73
2018-10-07T11:34:04.303Z,22.10
2018-10-07T11:38:47.659Z,22.08
2018-10-07T11:42:27.668Z,22.21
2018-10-07T11:45:00.843Z,22.00
2018-10-07T11:49:44.692Z,21.78
2018-10-07T11:53:27.538Z,21.53
2018-10-07T11:55:56.441Z,21.19
2018-10-07T11:58:25.387Z,21.37
2018-10-07T12:00:55.907Z,21.37
2018-10-07T12:03:24.827Z,20.97
2018-10-07T12:05:53.766Z,21.23
2018-10-07T12:08:22.982Z,21.33
2018-10-07T12:10:51.957Z,21.33
2018-10-07T12:13:20.851Z,21.50
2018-10-07T12:15:51.299Z,21.58
2018-10-07T12:18:20.162Z,21.60
2018-10-07T12:20:49.056Z,21.35
2018-10-07T12:23:19.195Z,21.20
2018-10-07T12:25:48.108Z,21.20
2018-10-07T12:28:17.070Z,21.25
2018-10-07T12:30:47.342Z,21.16
2018-10-07T12:33:16.277Z,20.80
2018-10-07T12:35:45.241Z,21.16
2018-10-07T12:38:15.827Z,21.19
2018-10-07T12:40:44.774Z,21.00
2018-10-07T12:43:13.743Z,21.13
2018-10-07T12:45:42.788Z,21.32
2018-10-07T12:48:11.684Z,21.32
2018-10-07T12:50:40.582Z,21.15
2018-10-07T12:53:11.045Z,20.86
2018-10-07T12:55:39.976Z,20.61
2018-10-07T12:58:08.938Z,20.64
2018-10-07T13:00:39.199Z,20.68
2018-10-07T13:03:08.211Z,20.66
2018-10-07T13:05:37.166Z,20.45
2018-10-07T13:08:06.151Z,20.29
2018-10-07T13:10:35.094Z,20.19
2018-10-07T13:13:04.010Z,20.42
2018-10-07T13:15:33.103Z,20.90
2018-10-07T13:18:03.578Z,21.68
2018-10-07T13:20:32.639Z,23.26
2018-10-07T13:23:01.605Z,23.74
2018-10-07T13:25:30.505Z,23.89
2018-10-07T13:27:59.440Z,24.11
2018-10-07T13:30:29.628Z,23.77
2018-10-07T13:32:58.521Z,24.50
2018-10-07T13:35:27.466Z,24.86
2018-10-07T13:37:57.832Z,24.54
2018-10-07T13:40:26.750Z,24.35
2018-10-07T13:42:55.667Z,24.25
2018-10-07T13:45:24.607Z,24.40
2018-10-07T13:47:53.495Z,24.00
2018-10-07T13:50:22.403Z,23.46
2018-10-07T13:52:51.518Z,23.71
2018-10-07T13:55:20.394Z,24.26
2018-10-07T13:57:49.305Z,24.01
2018-10-07T14:00:19.649Z,24.74
2018-10-07T14:02:48.570Z,24.28
2018-10-07T14:05:17.498Z,24.16
2018-10-07T14:07:46.455Z,24.66
2018-10-07T14:10:16.693Z,24.63
2018-10-07T14:12:46.022Z,24.51
2018-10-07T14:15:16.279Z,24.81
2018-10-07T14:17:45.467Z,25.23
2018-10-07T14:20:14.437Z,23.89
2018-10-07T14:22:43.391Z,23.16
2018-10-07T14:25:12.299Z,22.83
2018-10-07T14:27:41.427Z,23.00
2018-10-07T14:30:11.711Z,23.32
2018-10-07T14:32:40.644Z,23.82
2018-10-07T14:35:09.701Z,23.22
2018-10-07T14:37:38.570Z,22.60
2018-10-07T14:40:07.640Z,22.14
2018-10-07T14:42:36.589Z,22.22
2018-10-07T14:45:05.590Z,22.51
2018-10-07T14:47:34.511Z,22.21
2018-10-07T14:50:03.420Z,21.26
2018-10-07T14:52:33.635Z,21.44
2018-10-07T14:55:02.560Z,21.18
2018-10-07T14:57:31.535Z,20.67
2018-10-07T15:00:00.477Z,20.36
2018-10-07T15:02:29.438Z,20.00
2018-10-07T15:04:58.302Z,20.00
2018-10-07T15:07:27.316Z,20.40
2018-10-07T15:09:56.403Z,21.22
2018-10-07T15:12:25.367Z,21.45
2018-10-07T15:14:54.428Z,21.68
2018-10-07T15:17:23.423Z,21.64
2018-10-07T15:19:52.379Z,21.24
2018-10-07T15:22:22.538Z,21.49
2018-10-07T15:24:51.492Z,21.65
2018-10-07T15:27:20.556Z,21.47
2018-10-07T15:29:49.601Z,21.07
2018-10-07T15:32:18.630Z,20.57
2018-10-07T15:34:47.584Z,20.57
2018-10-07T15:37:16.459Z,20.12
2018-10-07T15:39:45.364Z,19.91
2018-10-07T15:42:14.484Z,19.71
2018-10-07T15:44:43.398Z,19.61
2018-10-07T15:47:12.394Z,19.36
2018-10-07T15:49:42.647Z,19.26
2018-10-07T15:52:11.565Z,19.07
2018-10-07T15:54:40.643Z,18.98
2018-10-07T15:57:10.932Z,18.93
2018-10-07T15:59:39.907Z,18.82
2018-10-07T16:02:08.806Z,18.76
2018-10-07T16:04:39.039Z,18.68
2018-10-07T16:07:07.906Z,18.68
2018-10-07T16:09:36.849Z,18.43
2018-10-07T16:12:05.754Z,18.51
2018-10-07T16:14:34.631Z,18.54
2018-10-07T16:17:04.829Z,18.53
2018-10-07T16:19:33.779Z,18.54
2018-10-07T16:22:02.724Z,18.46
2018-10-07T16:24:31.735Z,18.42
2018-10-07T16:27:00.579Z,18.39
2018-10-07T16:29:29.758Z,18.39
2018-10-07T16:31:58.669Z,18.31
2018-10-07T16:34:28.978Z,18.24
2018-10-07T16:36:57.873Z,18.17
2018-10-07T16:39:26.784Z,18.11
2018-10-07T16:41:55.711Z,18.05
2018-10-07T16:44:24.590Z,17.98
2018-10-07T16:46:53.561Z,17.94
2018-10-07T16:49:22.538Z,17.90
2018-10-07T16:51:51.449Z,17.95
2018-10-07T16:54:20.347Z,17.84
2018-10-07T16:56:50.706Z,17.80
2018-10-07T16:59:19.659Z,17.76
2018-10-07T17:01:48.532Z,17.75
2018-10-07T17:04:18.668Z,17.70
2018-10-07T17:06:47.623Z,17.59
2018-10-07T17:09:16.551Z,17.46
2018-10-07T17:11:46.693Z,17.32
2018-10-07T17:14:15.630Z,17.29
2018-10-07T17:16:44.628Z,17.14
2018-10-07T17:19:13.587Z,17.06
2018-10-07T17:21:42.538Z,17.06
2018-10-07T17:24:11.447Z,16.94
2018-10-07T17:26:41.756Z,16.94
2018-10-07T17:29:10.620Z,16.90
2018-10-07T17:31:39.622Z,16.90
2018-10-07T17:34:08.601Z,16.83
2018-10-07T17:36:37.573Z,16.70
2018-10-07T17:39:09.021Z,16.66
2018-10-07T17:41:39.664Z,16.51
2018-10-07T17:44:08.695Z,16.49
2018-10-07T17:46:37.631Z,16.33
2018-10-07T17:49:06.851Z,16.28
2018-10-07T17:51:37.162Z,16.27
2018-10-07T17:54:06.058Z,16.22
2018-10-07T17:56:36.222Z,16.31
2018-10-07T17:59:05.161Z,16.35
2018-10-07T18:01:34.099Z,16.21
2018-10-07T18:04:04.260Z,16.16
2018-10-07T18:06:33.227Z,16.08
2018-10-07T18:09:02.162Z,16.05
2018-10-07T18:11:31.045Z,15.99
2018-10-07T18:13:59.882Z,15.90
2018-10-07T18:16:30.206Z,15.83
2018-10-07T18:18:59.157Z,15.71
2018-10-07T18:21:29.335Z,15.64
2018-10-07T18:23:58.271Z,15.66
2018-10-07T18:26:27.259Z,15.63
2018-10-07T18:28:56.211Z,15.62
2018-10-07T18:31:25.127Z,15.68
2018-10-07T18:33:55.383Z,15.69
2018-10-07T18:36:24.363Z,15.75
2018-10-07T18:38:54.321Z,15.78
2018-10-07T18:41:23.390Z,15.76
2018-10-07T18:43:52.413Z,15.81
2018-10-07T18:46:21.409Z,15.75
2018-10-07T18:48:50.486Z,15.67
2018-10-07T18:51:19.302Z,15.52
2018-10-07T18:53:50.998Z,15.48
2018-10-07T18:56:19.986Z,15.49
2018-10-07T18:58:48.893Z,15.48
2018-10-07T19:01:19.131Z,15.50
2018-10-07T19:03:48.169Z,15.37
2018-10-07T19:06:17.296Z,15.40
2018-10-07T19:08:46.516Z,15.46
2018-10-07T19:11:15.543Z,15.50
2018-10-07T19:13:44.552Z,15.59
2018-10-07T19:16:15.332Z,15.45
2018-10-07T19:18:44.341Z,15.44
2018-10-07T19:21:13.212Z,15.44
2018-10-07T19:23:42.246Z,15.31
2018-10-07T19:26:11.184Z,15.21
2018-10-07T19:28:40.134Z,15.21
2018-10-07T19:31:10.287Z,15.29
2018-10-07T19:33:39.186Z,15.34
2018-10-07T19:36:08.031Z,15.29
2018-10-07T19:38:36.979Z,15.39
2018-10-07T19:41:06.041Z,15.29
2018-10-07T19:43:34.947Z,15.26
2018-10-07T19:46:06.421Z,15.38
2018-10-07T19:48:35.631Z,15.45
2018-10-07T19:51:04.811Z,15.50
2018-10-07T19:53:34.993Z,15.58
2018-10-07T19:56:03.950Z,15.65
2018-10-07T19:58:32.860Z,15.62
2018-10-07T20:01:01.891Z,15.54
2018-10-07T20:03:30.923Z,15.57
2018-10-07T20:05:59.908Z,15.55
2018-10-07T20:08:28.759Z,15.53
2018-10-07T20:10:58.896Z,15.43
2018-10-07T20:13:27.892Z,15.39
2018-10-07T20:15:56.779Z,15.39
2018-10-07T20:18:26.121Z,15.44
2018-10-07T20:20:54.985Z,15.32
2018-10-07T20:23:23.901Z,15.14
2018-10-07T20:25:52.858Z,15.23
2018-10-07T20:28:21.759Z,15.09
2018-10-07T20:30:50.773Z,15.10
2018-10-07T20:33:19.843Z,15.15
2018-10-07T20:35:48.742Z,14.89
2018-10-07T20:38:17.639Z,14.91
2018-10-07T20:40:48.058Z,14.79
2018-10-07T20:43:16.947Z,14.82
2018-10-07T20:45:46.044Z,14.81
2018-10-07T20:48:15.043Z,14.66
2018-10-07T20:50:43.909Z,14.48
2018-10-07T20:53:12.835Z,14.40
2018-10-07T20:55:41.758Z,14.34
2018-10-07T20:58:10.656Z,14.20
2018-10-07T21:00:40.827Z,14.18
2018-10-07T21:03:09.711Z,14.11
2018-10-07T21:05:38.635Z,14.00
2018-10-07T21:08:08.855Z,14.01
2018-10-07T21:10:37.723Z,13.84
2018-10-07T21:13:06.631Z,13.83
2018-10-07T21:15:35.594Z,14.05
2018-10-07T21:18:04.440Z,14.27
2018-10-07T21:20:33.377Z,14.35
2018-10-07T21:23:03.622Z,14.44
2018-10-07T21:25:33.799Z,14.46
2018-10-07T21:28:02.668Z,14.61
2018-10-07T21:30:31.583Z,14.73
2018-10-07T21:33:00.483Z,14.88
2018-10-07T21:35:29.399Z,14.93
2018-10-07T21:37:58.471Z,14.95
2018-10-07T21:40:27.375Z,14.86
2018-10-07T21:42:56.231Z,14.67
2018-10-07T21:45:25.333Z,14.45
2018-10-07T21:47:54.259Z,14.21
2018-10-07T21:50:23.136Z,14.28
2018-10-07T21:52:53.620Z,13.98
2018-10-07T21:55:22.576Z,13.90
2018-10-07T21:57:51.611Z,13.72
2018-10-07T22:00:20.635Z,13.46
2018-10-07T22:02:49.658Z,13.25
2018-10-07T22:05:18.591Z,13.09
2018-10-07T22:07:47.583Z,13.10
2018-10-07T22:10:16.430Z,13.03
2018-10-07T22:12:45.298Z,12.96
2018-10-07T22:15:14.423Z,12.90
2018-10-07T22:17:43.394Z,12.97
2018-10-07T22:20:12.655Z,12.90
2018-10-07T22:22:41.470Z,12.99
2018-10-07T22:25:11.703Z,12.86
2018-10-07T22:27:40.649Z,12.82
2018-10-07T22:30:09.582Z,12.88
2018-10-07T22:32:38.510Z,12.92
2018-10-07T22:35:07.418Z,12.86
2018-10-07T22:37:36.329Z,12.72
2018-10-07T22:40:05.267Z,12.64
2018-10-07T22:42:34.128Z,12.63
2018-10-07T22:45:03.064Z,12.75
2018-10-07T22:47:32.076Z,12.81
2018-10-07T22:50:00.911Z,12.84
2018-10-07T22:52:29.797Z,12.80
2018-10-07T22:54:58.926Z,12.83
2018-10-07T22:57:27.762Z,12.72
2018-10-07T22:59:56.706Z,12.66
2018-10-07T23:02:25.705Z,12.58
2018-10-07T23:04:54.598Z,12.64
2018-10-07T23:07:23.437Z,12.71
2018-10-07T23:09:52.395Z,12.56
2018-10-07T23:12:22.671Z,12.55
2018-10-07T23:14:51.505Z,12.48
2018-10-07T23:17:20.452Z,12.37
2018-10-07T23:19:49.469Z,12.39
2018-10-07T23:22:18.426Z,12.34
2018-10-07T23:24:47.303Z,12.27
2018-10-07T23:27:16.323Z,12.25
2018-10-07T23:29:45.288Z,12.32
2018-10-07T23:32:14.278Z,12.24
2018-10-07T23:34:43.191Z,12.11
2018-10-07T23:37:12.187Z,12.05
2018-10-07T23:39:41.208Z,11.93
2018-10-07T23:42:10.149Z,11.97
2018-10-07T23:44:39.195Z,12.02
2018-10-07T23:47:08.178Z,12.07
2018-10-07T23:49:37.038Z,11.92
2018-10-07T23:52:05.989Z,11.82
2018-10-07T23:54:34.938Z,11.70
2018-10-07T23:57:03.770Z,11.70
2018-10-07T23:59:32.658Z,11.67
